createdAt,value
2024-03-02T00:03:10.622Z,99170.69
2024-03-02T00:08:18.606Z,99169.25
2024-03-02T00:13:25.384Z,99167.81
2024-03-02T00:18:32.454Z,99169.44
2024-03-02T00:23:37.513Z,99173.59
2024-03-02T00:28:44.804Z,99165.00
2024-03-02T00:33:49.722Z,99166.78
2024-03-02T00:38:55.901Z,99163.75
2024-03-02T00:44:03.297Z,99147.13
2024-03-02T00:49:07.314Z,99149.41
2024-03-02T00:54:12.934Z,99136.19
2024-03-02T00:59:15.925Z,99138.00
2024-03-02T01:04:19.062Z,99137.19
2024-03-02T01:09:23.627Z,99130.91
2024-03-02T01:14:26.723Z,99130.91
2024-03-02T01:19:29.806Z,99122.31
2024-03-02T01:24:34.337Z,99126.47
2024-03-02T01:29:37.339Z,99141.63
2024-03-02T01:34:40.317Z,99141.25
2024-03-02T01:39:44.850Z,99145.38
2024-03-02T01:44:48.158Z,99135.34
2024-03-02T01:49:51.841Z,99131.88
2024-03-02T01:54:56.202Z,99112.84
2024-03-02T01:59:59.280Z,99119.22
2024-03-02T02:05:02.289Z,99116.69
2024-03-02T02:10:07.745Z,99107.75
2024-03-02T02:15:30.052Z,99109.44
2024-03-02T02:20:33.324Z,99104.47
2024-03-02T02:25:37.758Z,99095.66
2024-03-02T02:30:40.783Z,99089.13
2024-03-02T02:35:43.851Z,99078.56
2024-03-02T02:40:48.292Z,99075.31
2024-03-02T02:45:51.359Z,99073.03
2024-03-02T02:50:54.416Z,99054.16
2024-03-02T02:55:58.721Z,99047.16
2024-03-02T03:01:01.728Z,99038.19
2024-03-02T03:06:05.261Z,99032.59
2024-03-02T03:17:57.058Z,99027.97
2024-03-02T03:23:00.057Z,99035.47
2024-03-02T03:28:04.502Z,99036.44
2024-03-02T03:33:08.935Z,99034.75
2024-03-02T03:38:11.850Z,99035.63
2024-03-02T03:43:14.688Z,99023.28
2024-03-02T03:48:19.757Z,99027.75
2024-03-02T03:53:23.417Z,99041.06
2024-03-02T03:58:26.251Z,99047.38
2024-03-02T04:03:31.432Z,99046.88
2024-03-02T04:08:34.322Z,99043.84
2024-03-02T04:13:37.310Z,99049.81
2024-03-02T04:18:41.725Z,99048.59
2024-03-02T04:23:44.648Z,99048.13
2024-03-02T04:28:47.665Z,99056.47
2024-03-02T04:33:52.049Z,99060.25
2024-03-02T04:38:55.028Z,99055.28
2024-03-02T04:43:57.941Z,99055.41
2024-03-02T04:49:02.292Z,99057.94
2024-03-02T04:54:05.311Z,99064.72
2024-03-02T04:59:08.814Z,99061.09
2024-03-02T05:04:13.658Z,99067.28
2024-03-02T05:09:16.579Z,99069.78
2024-03-02T05:14:19.601Z,99079.09
2024-03-02T05:19:23.879Z,99089.75
2024-03-02T05:24:28.393Z,99087.56
2024-03-02T05:29:31.247Z,99096.53
2024-03-02T05:34:36.552Z,99090.47
2024-03-02T05:39:39.620Z,99094.22
2024-03-02T05:44:42.521Z,99098.97
2024-03-02T05:49:46.774Z,99099.22
2024-03-02T05:54:50.078Z,99102.53
2024-03-02T05:59:53.157Z,99094.19
2024-03-02T06:04:58.429Z,99103.59
2024-03-02T06:10:01.538Z,99104.09
2024-03-02T06:15:05.086Z,99099.50
2024-03-02T06:20:10.814Z,99108.69
2024-03-02T06:25:14.331Z,99110.75
2024-03-02T06:30:17.731Z,99116.34
2024-03-02T06:35:22.041Z,99123.66
2024-03-02T06:40:24.874Z,99135.63
2024-03-02T06:45:27.941Z,99129.56
2024-03-02T06:50:32.146Z,99140.81
2024-03-02T06:55:35.025Z,99143.25
2024-03-02T07:00:37.881Z,99150.25
2024-03-02T07:05:43.141Z,99151.00
2024-03-02T07:10:45.991Z,99150.38
2024-03-02T07:16:12.343Z,99146.38
2024-03-02T07:21:16.548Z,99146.88
2024-03-02T07:31:26.228Z,99161.22
2024-03-02T07:36:30.515Z,99160.03
2024-03-02T07:41:33.873Z,99162.66
2024-03-02T07:46:36.908Z,99166.25
2024-03-02T07:51:41.201Z,99174.66
2024-03-02T07:56:44.183Z,99171.84
2024-03-02T08:07:25.629Z,99169.34
2024-03-02T08:12:28.742Z,99181.81
2024-03-02T08:17:34.214Z,99175.31
2024-03-02T08:22:38.862Z,99173.84
2024-03-02T08:27:42.288Z,99168.66
2024-03-02T08:32:46.207Z,99173.25
2024-03-02T08:37:50.853Z,99175.31
2024-03-02T08:42:54.630Z,99178.22
2024-03-02T08:47:57.696Z,99198.72
2024-03-02T08:53:02.128Z,99197.84
2024-03-02T08:58:05.604Z,99189.16
2024-03-02T09:03:08.890Z,99179.94
2024-03-02T09:08:13.110Z,99174.09
2024-03-02T09:13:16.111Z,99183.66
2024-03-02T09:18:19.145Z,99196.06
2024-03-02T09:23:23.610Z,99178.84
2024-03-02T09:28:26.630Z,99183.22
2024-03-02T09:33:29.810Z,99181.88
2024-03-02T09:38:35.731Z,99170.44
2024-03-02T09:43:38.903Z,99173.94
2024-03-02T09:48:42.026Z,99160.47
2024-03-02T09:53:46.534Z,99169.91
2024-03-02T09:58:49.710Z,99168.06
2024-03-02T10:03:53.364Z,99178.03
2024-03-02T10:08:58.043Z,99183.78
2024-03-02T10:14:09.509Z,99180.75
2024-03-02T10:19:18.838Z,99179.44
2024-03-02T10:24:24.477Z,99182.94
2024-03-02T10:29:29.564Z,99183.84
2024-03-02T10:34:33.390Z,99186.03
2024-03-02T10:39:38.592Z,99183.63
2024-03-02T10:44:41.880Z,99184.84
2024-03-02T10:49:45.613Z,99186.72
2024-03-02T10:54:50.058Z,99183.06
2024-03-02T10:59:58.011Z,99173.50
2024-03-02T11:05:10.053Z,99173.78
2024-03-02T11:10:15.375Z,99167.56
2024-03-02T11:15:21.519Z,99166.63
2024-03-02T11:20:25.811Z,99152.34
2024-03-02T11:25:30.475Z,99161.19
2024-03-02T11:30:52.908Z,99157.28
2024-03-02T11:35:57.804Z,99166.69
2024-03-02T11:41:04.838Z,99155.38
2024-03-02T11:46:09.347Z,99163.41
2024-03-02T11:51:13.948Z,99169.84
2024-03-02T11:56:23.037Z,99167.94
2024-03-02T12:01:26.233Z,99153.50
2024-03-02T12:06:30.452Z,99159.53
2024-03-02T12:11:34.942Z,99153.09
2024-03-02T12:16:39.801Z,99148.47
2024-03-02T12:21:43.011Z,99151.19
2024-03-02T12:26:48.187Z,99139.31
2024-03-02T12:31:51.476Z,99138.22
2024-03-02T12:36:54.654Z,99133.50
2024-03-02T12:41:59.034Z,99134.41
2024-03-02T12:47:02.480Z,99126.22
2024-03-02T12:52:06.396Z,99135.25
2024-03-02T12:57:10.974Z,99118.63
2024-03-02T13:02:19.768Z,99122.59
2024-03-02T13:07:23.921Z,99109.59
2024-03-02T13:12:28.357Z,99111.53
2024-03-02T13:17:36.913Z,99113.78
2024-03-02T13:22:41.331Z,99116.72
2024-03-02T13:27:45.689Z,99112.00
2024-03-02T13:32:48.651Z,99101.94
2024-03-02T13:37:52.029Z,99089.41
2024-03-02T13:42:56.731Z,99091.03
2024-03-02T13:47:59.783Z,99081.13
2024-03-02T13:53:04.180Z,99078.34
2024-03-02T13:58:09.042Z,99079.22
2024-03-02T14:03:12.046Z,99084.72
2024-03-02T14:08:15.256Z,99083.41
2024-03-02T14:13:19.596Z,99083.91
2024-03-02T14:18:23.400Z,99074.59
2024-03-02T14:23:29.284Z,99053.38
2024-03-02T14:28:47.991Z,99059.53
2024-03-02T14:33:54.217Z,99072.94
2024-03-02T14:38:57.489Z,99055.59
2024-03-02T14:44:01.761Z,99051.16
2024-03-02T14:49:05.000Z,99046.38
2024-03-02T14:54:08.488Z,99041.31
2024-03-02T14:59:12.808Z,99043.44
2024-03-02T15:04:18.496Z,99043.34
2024-03-02T15:09:23.139Z,99034.69
2024-03-02T15:14:27.465Z,99047.34
2024-03-02T15:19:30.497Z,99043.66
2024-03-02T15:24:33.542Z,99045.78
2024-03-02T15:29:37.955Z,99043.38
2024-03-02T15:34:41.052Z,99050.13
2024-03-02T15:39:45.143Z,99043.50
2024-03-02T15:44:49.486Z,99048.66
2024-03-02T15:49:52.423Z,99051.16
2024-03-02T15:54:55.375Z,99046.63
2024-03-02T15:59:59.777Z,99038.03
2024-03-02T16:05:02.724Z,99047.69
2024-03-02T16:10:08.833Z,99041.53
2024-03-02T16:15:13.367Z,99050.59
2024-03-02T16:20:16.462Z,99053.94
2024-03-02T16:25:19.630Z,99052.25
2024-03-02T16:30:25.667Z,99059.50
2024-03-02T16:35:28.827Z,99062.06
2024-03-02T16:40:32.829Z,99061.56
2024-03-02T16:45:37.243Z,99063.75
2024-03-02T16:50:40.243Z,99066.84
2024-03-02T16:55:43.450Z,99072.59
2024-03-02T17:00:48.301Z,99070.75
2024-03-02T17:05:51.299Z,99080.34
2024-03-02T17:10:54.402Z,99084.06
2024-03-02T17:15:58.840Z,99092.22
2024-03-02T17:21:01.898Z,99097.13
2024-03-02T17:26:05.106Z,99095.75
2024-03-02T17:31:10.043Z,99099.59
2024-03-02T17:36:14.250Z,99089.34
2024-03-02T17:41:17.330Z,99096.94
2024-03-02T17:46:21.982Z,99095.91
2024-03-02T17:51:25.553Z,99099.59
2024-03-02T17:56:28.628Z,99104.25
2024-03-02T18:01:32.956Z,99112.09
2024-03-02T18:06:36.302Z,99111.72
2024-03-02T18:11:40.488Z,99105.25
2024-03-02T18:16:45.015Z,99109.38
2024-03-02T18:21:50.231Z,99113.66
2024-03-02T18:26:53.356Z,99116.28
2024-03-02T18:31:58.859Z,99102.19
2024-03-02T18:37:02.006Z,99106.13
2024-03-02T18:42:05.733Z,99109.78
2024-03-02T18:47:11.991Z,99112.22
2024-03-02T18:52:18.812Z,99105.25
2024-03-02T18:57:22.414Z,99110.56
2024-03-02T19:02:27.298Z,99113.22
2024-03-02T19:07:31.094Z,99115.91
2024-03-02T19:12:34.966Z,99114.63
2024-03-02T19:17:39.512Z,99115.34
2024-03-02T19:22:43.205Z,99111.50
2024-03-02T19:27:46.525Z,99112.25
2024-03-02T19:32:50.996Z,99109.94
2024-03-02T19:37:56.403Z,99109.16
2024-03-02T19:42:59.428Z,99103.56
2024-03-02T19:48:04.517Z,99113.56
2024-03-02T19:53:08.170Z,99114.84
2024-03-02T19:58:11.251Z,99114.53
2024-03-02T20:03:16.174Z,99117.13
2024-03-02T20:08:19.143Z,99119.25
2024-03-02T20:18:53.529Z,99118.94
2024-03-02T20:23:56.734Z,99118.91
2024-03-02T20:28:59.593Z,99107.53
2024-03-02T20:34:03.977Z,99109.66
2024-03-02T20:39:07.252Z,99097.16
2024-03-02T20:44:10.230Z,99102.31
2024-03-02T20:49:14.683Z,99089.47
2024-03-02T20:54:17.714Z,99087.88
2024-03-02T20:59:20.685Z,99085.19
2024-03-02T21:04:25.215Z,99082.25
2024-03-02T21:09:28.107Z,99074.91
2024-03-02T21:14:31.197Z,99084.63
2024-03-02T21:19:36.623Z,99071.41
2024-03-02T21:24:41.657Z,99078.88
2024-03-02T21:29:44.751Z,99073.88
2024-03-02T21:34:49.411Z,99067.91
2024-03-02T21:39:52.334Z,99069.59
2024-03-02T21:44:55.669Z,99068.50
2024-03-02T21:50:00.201Z,99061.84
2024-03-02T21:55:03.366Z,99063.19
2024-03-02T22:00:07.754Z,99056.75
2024-03-02T22:05:18.066Z,99055.84
2024-03-02T22:10:21.023Z,99049.53
2024-03-02T22:15:24.020Z,99050.78
2024-03-02T22:20:28.270Z,99042.75
2024-03-02T22:25:31.163Z,99032.16
2024-03-02T22:30:34.142Z,99032.56
2024-03-02T22:35:38.360Z,99026.97
2024-03-02T22:40:41.226Z,99026.81
2024-03-02T22:45:44.163Z,99023.34
2024-03-02T22:50:48.747Z,99034.84
2024-03-02T22:55:51.779Z,99039.38
2024-03-02T23:00:59.041Z,99032.34
2024-03-02T23:06:04.461Z,99039.81
2024-03-02T23:11:07.696Z,99029.97
2024-03-02T23:16:10.825Z,99034.44
2024-03-02T23:21:15.217Z,99038.53
2024-03-02T23:26:18.181Z,99030.94
2024-03-02T23:31:21.268Z,99023.34
2024-03-02T23:36:25.560Z,99017.00
2024-03-02T23:41:28.517Z,99019.38
2024-03-02T23:46:31.472Z,99022.06
2024-03-02T23:51:35.758Z,99024.78
2024-03-02T23:56:38.750Z,99019.88
